sensor_id;sensor_type;location;lat;lon;timestamp;P1;durP1;ratioP1;P2;durP2;ratioP2
60030;SDS011;45901;47.600;9.890;2024-03-02T00:01:35;4.50;;;1.17;;
60030;SDS011;45901;47.600;9.890;2024-03-02T00:04:03;12.97;;;1.70;;
60030;SDS011;45901;47.600;9.890;2024-03-02T00:06:31;6.13;;;2.00;;
60030;SDS011;45901;47.600;9.890;2024-03-02T00:08:59;2.63;;;2.13;;
60030;SDS011;45901;47.600;9.890;2024-03-02T00:11:28;2.53;;;2.00;;
60030;SDS011;45901;47.600;9.890;2024-03-02T00:13:55;2.53;;;2.03;;
60030;SDS011;45901;47.600;9.890;2024-03-02T00:16:22;2.23;;;1.73;;
60030;SDS011;45901;47.600;9.890;2024-03-02T00:18:50;2.50;;;1.93;;
60030;SDS011;45901;47.600;9.890;2024-03-02T00:21:17;2.57;;;2.10;;
60030;SDS011;45901;47.600;9.890;2024-03-02T00:23:46;2.43;;;2.10;;
60030;SDS011;45901;47.600;9.890;2024-03-02T00:26:17;3.20;;;2.40;;
60030;SDS011;45901;47.600;9.890;2024-03-02T00:28:45;5.60;;;2.90;;
60030;SDS011;45901;47.600;9.890;2024-03-02T00:31:15;3.73;;;3.00;;
60030;SDS011;45901;47.600;9.890;2024-03-02T00:33:46;4.73;;;3.40;;
60030;SDS011;45901;47.600;9.890;2024-03-02T00:36:15;4.27;;;3.27;;
60030;SDS011;45901;47.600;9.890;2024-03-02T00:38:48;4.03;;;3.00;;
60030;SDS011;45901;47.600;9.890;2024-03-02T00:41:17;5.10;;;3.17;;
60030;SDS011;45901;47.600;9.890;2024-03-02T00:43:52;4.27;;;3.40;;
60030;SDS011;45901;47.600;9.890;2024-03-02T00:46:24;4.50;;;3.20;;
60030;SDS011;45901;47.600;9.890;2024-03-02T00:48:52;5.33;;;3.40;;
60030;SDS011;45901;47.600;9.890;2024-03-02T00:51:22;4.07;;;3.23;;
60030;SDS011;45901;47.600;9.890;2024-03-02T00:53:50;5.97;;;3.43;;
60030;SDS011;45901;47.600;9.890;2024-03-02T00:56:20;7.90;;;4.87;;
60030;SDS011;45901;47.600;9.890;2024-03-02T00:58:48;8.50;;;4.87;;
60030;SDS011;45901;47.600;9.890;2024-03-02T01:01:17;6.10;;;4.80;;
60030;SDS011;45901;47.600;9.890;2024-03-02T01:03:45;5.93;;;4.70;;
60030;SDS011;45901;47.600;9.890;2024-03-02T01:06:12;7.43;;;4.57;;
60030;SDS011;45901;47.600;9.890;2024-03-02T01:08:39;6.80;;;4.93;;
60030;SDS011;45901;47.600;9.890;2024-03-02T01:11:07;5.33;;;4.17;;
60030;SDS011;45901;47.600;9.890;2024-03-02T01:13:34;7.83;;;4.70;;
60030;SDS011;45901;47.600;9.890;2024-03-02T01:16:02;6.60;;;4.40;;
60030;SDS011;45901;47.600;9.890;2024-03-02T01:18:31;5.20;;;4.07;;
60030;SDS011;45901;47.600;9.890;2024-03-02T01:20:58;4.77;;;3.63;;
60030;SDS011;45901;47.600;9.890;2024-03-02T01:23:27;5.43;;;3.63;;
60030;SDS011;45901;47.600;9.890;2024-03-02T01:25:55;4.47;;;3.43;;
60030;SDS011;45901;47.600;9.890;2024-03-02T01:28:22;4.20;;;3.30;;
60030;SDS011;45901;47.600;9.890;2024-03-02T01:30:49;4.60;;;3.37;;
60030;SDS011;45901;47.600;9.890;2024-03-02T01:33:16;4.70;;;3.33;;
60030;SDS011;45901;47.600;9.890;2024-03-02T01:35:45;6.33;;;3.53;;
60030;SDS011;45901;47.600;9.890;2024-03-02T01:38:12;5.20;;;3.93;;
60030;SDS011;45901;47.600;9.890;2024-03-02T01:40:39;4.47;;;3.43;;
60030;SDS011;45901;47.600;9.890;2024-03-02T01:43:09;5.13;;;3.53;;
60030;SDS011;45901;47.600;9.890;2024-03-02T01:45:36;5.23;;;3.80;;
60030;SDS011;45901;47.600;9.890;2024-03-02T01:48:04;5.77;;;4.37;;
60030;SDS011;45901;47.600;9.890;2024-03-02T01:50:33;5.63;;;3.90;;
60030;SDS011;45901;47.600;9.890;2024-03-02T01:53:02;4.57;;;3.40;;
60030;SDS011;45901;47.600;9.890;2024-03-02T01:55:30;5.40;;;3.80;;
60030;SDS011;45901;47.600;9.890;2024-03-02T01:57:58;6.13;;;3.77;;
60030;SDS011;45901;47.600;9.890;2024-03-02T02:00:25;6.13;;;4.23;;
60030;SDS011;45901;47.600;9.890;2024-03-02T02:02:53;5.50;;;3.70;;
60030;SDS011;45901;47.600;9.890;2024-03-02T02:05:20;7.50;;;4.03;;
60030;SDS011;45901;47.600;9.890;2024-03-02T02:07:48;6.43;;;4.03;;
60030;SDS011;45901;47.600;9.890;2024-03-02T02:10:17;6.07;;;3.47;;
60030;SDS011;45901;47.600;9.890;2024-03-02T02:12:44;4.87;;;3.20;;
60030;SDS011;45901;47.600;9.890;2024-03-02T02:15:24;4.43;;;3.30;;
60030;SDS011;45901;47.600;9.890;2024-03-02T02:17:52;4.47;;;3.17;;
60030;SDS011;45901;47.600;9.890;2024-03-02T02:20:19;4.23;;;3.20;;
60030;SDS011;45901;47.600;9.890;2024-03-02T02:22:55;5.93;;;3.80;;
60030;SDS011;45901;47.600;9.890;2024-03-02T02:25:24;5.90;;;3.60;;
60030;SDS011;45901;47.600;9.890;2024-03-02T02:27:52;4.97;;;3.50;;
60030;SDS011;45901;47.600;9.890;2024-03-02T02:30:19;4.50;;;3.70;;
60030;SDS011;45901;47.600;9.890;2024-03-02T02:32:48;5.83;;;4.07;;
60030;SDS011;45901;47.600;9.890;2024-03-02T02:35:15;6.73;;;4.43;;
60030;SDS011;45901;47.600;9.890;2024-03-02T02:37:42;5.97;;;4.23;;
60030;SDS011;45901;47.600;9.890;2024-03-02T02:40:13;6.43;;;4.37;;
60030;SDS011;45901;47.600;9.890;2024-03-02T02:42:41;7.03;;;4.50;;
60030;SDS011;45901;47.600;9.890;2024-03-02T02:45:08;6.63;;;4.20;;
60030;SDS011;45901;47.600;9.890;2024-03-02T02:47:36;6.00;;;4.43;;
60030;SDS011;45901;47.600;9.890;2024-03-02T02:50:03;7.37;;;4.40;;
60030;SDS011;45901;47.600;9.890;2024-03-02T02:52:34;6.00;;;4.20;;
60030;SDS011;45901;47.600;9.890;2024-03-02T02:55:03;5.90;;;4.30;;
60030;SDS011;45901;47.600;9.890;2024-03-02T02:57:33;5.83;;;4.50;;
60030;SDS011;45901;47.600;9.890;2024-03-02T03:00:03;5.27;;;3.90;;
60030;SDS011;45901;47.600;9.890;2024-03-02T03:02:36;6.80;;;4.50;;
60030;SDS011;45901;47.600;9.890;2024-03-02T03:05:05;6.40;;;4.40;;
60030;SDS011;45901;47.600;9.890;2024-03-02T03:07:33;4.80;;;3.87;;
60030;SDS011;45901;47.600;9.890;2024-03-02T03:09:59;8.63;;;4.40;;
60030;SDS011;45901;47.600;9.890;2024-03-02T03:12:26;6.07;;;4.30;;
60030;SDS011;45901;47.600;9.890;2024-03-02T03:14:55;4.80;;;3.70;;
60030;SDS011;45901;47.600;9.890;2024-03-02T03:17:22;16.53;;;4.03;;
60030;SDS011;45901;47.600;9.890;2024-03-02T03:19:49;5.47;;;3.70;;
60030;SDS011;45901;47.600;9.890;2024-03-02T03:22:17;5.57;;;3.50;;
60030;SDS011;45901;47.600;9.890;2024-03-02T03:24:44;5.50;;;3.80;;
60030;SDS011;45901;47.600;9.890;2024-03-02T03:27:11;7.07;;;3.37;;
60030;SDS011;45901;47.600;9.890;2024-03-02T03:29:38;4.43;;;2.93;;
60030;SDS011;45901;47.600;9.890;2024-03-02T03:32:07;4.70;;;2.77;;
60030;SDS011;45901;47.600;9.890;2024-03-02T03:34:35;3.07;;;2.50;;
60030;SDS011;45901;47.600;9.890;2024-03-02T03:37:02;45.43;;;4.00;;
60030;SDS011;45901;47.600;9.890;2024-03-02T03:39:30;28.03;;;3.13;;
60030;SDS011;45901;47.600;9.890;2024-03-02T03:41:57;66.53;;;4.50;;
60030;SDS011;45901;47.600;9.890;2024-03-02T03:44:24;3.70;;;2.10;;
60030;SDS011;45901;47.600;9.890;2024-03-02T03:46:51;49.63;;;3.67;;
60030;SDS011;45901;47.600;9.890;2024-03-02T03:49:20;47.23;;;3.67;;
60030;SDS011;45901;47.600;9.890;2024-03-02T03:51:47;4.07;;;2.90;;
60030;SDS011;45901;47.600;9.890;2024-03-02T03:54:14;7.20;;;3.30;;
60030;SDS011;45901;47.600;9.890;2024-03-02T03:56:41;12.33;;;2.97;;
60030;SDS011;45901;47.600;9.890;2024-03-02T03:59:09;4.43;;;3.27;;
60030;SDS011;45901;47.600;9.890;2024-03-02T04:01:36;5.40;;;3.73;;
60030;SDS011;45901;47.600;9.890;2024-03-02T04:04:07;7.13;;;4.60;;
60030;SDS011;45901;47.600;9.890;2024-03-02T04:06:37;7.47;;;5.10;;
60030;SDS011;45901;47.600;9.890;2024-03-02T04:09:05;8.63;;;5.70;;
60030;SDS011;45901;47.600;9.890;2024-03-02T04:11:32;9.07;;;6.53;;
60030;SDS011;45901;47.600;9.890;2024-03-02T04:13:59;7.33;;;5.27;;
60030;SDS011;45901;47.600;9.890;2024-03-02T04:16:26;9.67;;;7.00;;
60030;SDS011;45901;47.600;9.890;2024-03-02T04:18:53;10.53;;;7.13;;
60030;SDS011;45901;47.600;9.890;2024-03-02T04:21:21;8.33;;;6.27;;
60030;SDS011;45901;47.600;9.890;2024-03-02T04:23:49;9.77;;;6.27;;
60030;SDS011;45901;47.600;9.890;2024-03-02T04:26:16;8.70;;;6.63;;
60030;SDS011;45901;47.600;9.890;2024-03-02T04:28:47;10.27;;;7.17;;
60030;SDS011;45901;47.600;9.890;2024-03-02T04:31:14;11.63;;;7.17;;
60030;SDS011;45901;47.600;9.890;2024-03-02T04:33:42;9.20;;;6.90;;
60030;SDS011;45901;47.600;9.890;2024-03-02T04:36:09;9.47;;;6.83;;
60030;SDS011;45901;47.600;9.890;2024-03-02T04:38:36;8.93;;;6.47;;
60030;SDS011;45901;47.600;9.890;2024-03-02T04:41:06;7.03;;;4.83;;
60030;SDS011;45901;47.600;9.890;2024-03-02T04:43:34;8.07;;;5.17;;
60030;SDS011;45901;47.600;9.890;2024-03-02T04:46:01;7.77;;;5.07;;
60030;SDS011;45901;47.600;9.890;2024-03-02T04:48:29;8.17;;;5.47;;
60030;SDS011;45901;47.600;9.890;2024-03-02T04:50:56;6.93;;;4.87;;
60030;SDS011;45901;47.600;9.890;2024-03-02T04:53:23;7.03;;;4.93;;
60030;SDS011;45901;47.600;9.890;2024-03-02T04:55:50;7.07;;;3.97;;
60030;SDS011;45901;47.600;9.890;2024-03-02T04:58:36;4.53;;;3.23;;
60030;SDS011;45901;47.600;9.890;2024-03-02T05:01:03;3.90;;;2.87;;
60030;SDS011;45901;47.600;9.890;2024-03-02T05:03:31;5.67;;;3.10;;
60030;SDS011;45901;47.600;9.890;2024-03-02T05:05:59;3.70;;;2.80;;
60030;SDS011;45901;47.600;9.890;2024-03-02T05:08:27;3.60;;;2.60;;
60030;SDS011;45901;47.600;9.890;2024-03-02T05:10:54;4.00;;;2.90;;
60030;SDS011;45901;47.600;9.890;2024-03-02T05:13:42;5.27;;;3.07;;
60030;SDS011;45901;47.600;9.890;2024-03-02T05:16:09;3.77;;;2.90;;
60030;SDS011;45901;47.600;9.890;2024-03-02T05:18:37;6.10;;;4.50;;
60030;SDS011;45901;47.600;9.890;2024-03-02T05:21:05;7.07;;;5.13;;
60030;SDS011;45901;47.600;9.890;2024-03-02T05:23:33;7.93;;;5.60;;
60030;SDS011;45901;47.600;9.890;2024-03-02T05:26:00;6.77;;;5.23;;
60030;SDS011;45901;47.600;9.890;2024-03-02T05:28:27;7.90;;;5.13;;
60030;SDS011;45901;47.600;9.890;2024-03-02T05:30:55;6.90;;;4.97;;
60030;SDS011;45901;47.600;9.890;2024-03-02T05:33:23;6.37;;;4.50;;
60030;SDS011;45901;47.600;9.890;2024-03-02T05:35:50;6.50;;;4.73;;
60030;SDS011;45901;47.600;9.890;2024-03-02T05:38:18;5.40;;;3.80;;
60030;SDS011;45901;47.600;9.890;2024-03-02T05:40:45;9.83;;;4.87;;
60030;SDS011;45901;47.600;9.890;2024-03-02T05:43:12;7.77;;;5.27;;
60030;SDS011;45901;47.600;9.890;2024-03-02T05:45:39;9.17;;;5.90;;
60030;SDS011;45901;47.600;9.890;2024-03-02T05:48:08;8.27;;;5.77;;
60030;SDS011;45901;47.600;9.890;2024-03-02T05:50:35;8.90;;;5.27;;
60030;SDS011;45901;47.600;9.890;2024-03-02T05:53:02;7.43;;;4.63;;
60030;SDS011;45901;47.600;9.890;2024-03-02T05:55:30;9.30;;;5.83;;
60030;SDS011;45901;47.600;9.890;2024-03-02T05:57:57;7.03;;;5.23;;
60030;SDS011;45901;47.600;9.890;2024-03-02T06:00:40;9.97;;;6.00;;
60030;SDS011;45901;47.600;9.890;2024-03-02T06:03:09;6.50;;;5.10;;
60030;SDS011;45901;47.600;9.890;2024-03-02T06:05:37;9.07;;;5.23;;
60030;SDS011;45901;47.600;9.890;2024-03-02T06:08:04;7.63;;;5.40;;
60030;SDS011;45901;47.600;9.890;2024-03-02T06:10:32;7.53;;;4.77;;
60030;SDS011;45901;47.600;9.890;2024-03-02T06:12:59;6.90;;;4.83;;
60030;SDS011;45901;47.600;9.890;2024-03-02T06:15:26;7.57;;;5.17;;
60030;SDS011;45901;47.600;9.890;2024-03-02T06:17:54;7.13;;;4.80;;
60030;SDS011;45901;47.600;9.890;2024-03-02T06:20:22;7.27;;;4.40;;
60030;SDS011;45901;47.600;9.890;2024-03-02T06:22:51;7.83;;;4.67;;
60030;SDS011;45901;47.600;9.890;2024-03-02T06:25:19;5.47;;;4.10;;
60030;SDS011;45901;47.600;9.890;2024-03-02T06:27:46;7.10;;;4.97;;
60030;SDS011;45901;47.600;9.890;2024-03-02T06:30:13;6.53;;;4.63;;
60030;SDS011;45901;47.600;9.890;2024-03-02T06:32:41;9.27;;;6.40;;
60030;SDS011;45901;47.600;9.890;2024-03-02T06:35:08;7.73;;;5.80;;
60030;SDS011;45901;47.600;9.890;2024-03-02T06:37:37;9.27;;;6.30;;
60030;SDS011;45901;47.600;9.890;2024-03-02T06:40:06;8.63;;;5.77;;
60030;SDS011;45901;47.600;9.890;2024-03-02T06:42:34;6.37;;;5.13;;
60030;SDS011;45901;47.600;9.890;2024-03-02T06:45:02;7.27;;;5.37;;
60030;SDS011;45901;47.600;9.890;2024-03-02T06:47:30;6.23;;;4.50;;
60030;SDS011;45901;47.600;9.890;2024-03-02T06:49:57;8.20;;;5.07;;
60030;SDS011;45901;47.600;9.890;2024-03-02T06:52:24;8.80;;;5.50;;
60030;SDS011;45901;47.600;9.890;2024-03-02T06:54:53;6.90;;;5.27;;
60030;SDS011;45901;47.600;9.890;2024-03-02T06:57:20;7.03;;;5.00;;
60030;SDS011;45901;47.600;9.890;2024-03-02T06:59:49;7.67;;;4.80;;
60030;SDS011;45901;47.600;9.890;2024-03-02T07:02:19;5.60;;;4.33;;
60030;SDS011;45901;47.600;9.890;2024-03-02T07:04:48;5.80;;;3.93;;
60030;SDS011;45901;47.600;9.890;2024-03-02T07:07:16;8.97;;;5.03;;
60030;SDS011;45901;47.600;9.890;2024-03-02T07:09:43;7.70;;;5.67;;
60030;SDS011;45901;47.600;9.890;2024-03-02T07:12:12;6.27;;;4.50;;
60030;SDS011;45901;47.600;9.890;2024-03-02T07:14:39;4.67;;;3.10;;
60030;SDS011;45901;47.600;9.890;2024-03-02T07:17:36;3.93;;;2.70;;
60030;SDS011;45901;47.600;9.890;2024-03-02T07:20:04;4.47;;;2.43;;
60030;SDS011;45901;47.600;9.890;2024-03-02T07:22:32;3.10;;;2.13;;
60030;SDS011;45901;47.600;9.890;2024-03-02T07:24:59;3.77;;;2.50;;
60030;SDS011;45901;47.600;9.890;2024-03-02T07:27:29;3.37;;;2.30;;
60030;SDS011;45901;47.600;9.890;2024-03-02T07:29:58;3.80;;;2.27;;
60030;SDS011;45901;47.600;9.890;2024-03-02T07:32:26;3.93;;;2.37;;
60030;SDS011;45901;47.600;9.890;2024-03-02T07:34:53;2.70;;;1.83;;
60030;SDS011;45901;47.600;9.890;2024-03-02T07:37:20;2.93;;;1.83;;
60030;SDS011;45901;47.600;9.890;2024-03-02T07:39:48;2.83;;;1.97;;
60030;SDS011;45901;47.600;9.890;2024-03-02T07:42:15;3.70;;;1.80;;
60030;SDS011;45901;47.600;9.890;2024-03-02T07:44:44;2.60;;;1.43;;
60030;SDS011;45901;47.600;9.890;2024-03-02T07:47:12;2.90;;;1.20;;
60030;SDS011;45901;47.600;9.890;2024-03-02T07:49:39;2.30;;;1.30;;
60030;SDS011;45901;47.600;9.890;2024-03-02T07:52:07;1.27;;;0.97;;
60030;SDS011;45901;47.600;9.890;2024-03-02T07:54:34;1.40;;;1.20;;
60030;SDS011;45901;47.600;9.890;2024-03-02T07:57:01;2.37;;;1.27;;
60030;SDS011;45901;47.600;9.890;2024-03-02T07:59:29;5.80;;;2.20;;
60030;SDS011;45901;47.600;9.890;2024-03-02T08:01:57;3.13;;;1.73;;
60030;SDS011;45901;47.600;9.890;2024-03-02T08:04:25;4.83;;;2.20;;
60030;SDS011;45901;47.600;9.890;2024-03-02T08:06:53;5.50;;;3.60;;
60030;SDS011;45901;47.600;9.890;2024-03-02T08:09:20;6.50;;;2.90;;
60030;SDS011;45901;47.600;9.890;2024-03-02T08:11:47;5.40;;;2.87;;
60030;SDS011;45901;47.600;9.890;2024-03-02T08:14:15;4.83;;;3.00;;
60030;SDS011;45901;47.600;9.890;2024-03-02T08:16:42;3.30;;;1.20;;
60030;SDS011;45901;47.600;9.890;2024-03-02T08:19:11;1.93;;;1.20;;
60030;SDS011;45901;47.600;9.890;2024-03-02T08:21:38;2.70;;;1.20;;
60030;SDS011;45901;47.600;9.890;2024-03-02T08:24:05;2.07;;;0.90;;
60030;SDS011;45901;47.600;9.890;2024-03-02T08:26:33;3.33;;;1.30;;
60030;SDS011;45901;47.600;9.890;2024-03-02T08:29:01;1.53;;;1.10;;
60030;SDS011;45901;47.600;9.890;2024-03-02T08:31:28;1.23;;;0.80;;
60030;SDS011;45901;47.600;9.890;2024-03-02T08:33:56;1.53;;;0.80;;
60030;SDS011;45901;47.600;9.890;2024-03-02T08:36:25;1.90;;;1.13;;
60030;SDS011;45901;47.600;9.890;2024-03-02T08:38:52;1.77;;;1.00;;
60030;SDS011;45901;47.600;9.890;2024-03-02T08:41:19;1.40;;;1.10;;
60030;SDS011;45901;47.600;9.890;2024-03-02T08:43:47;1.47;;;0.97;;
60030;SDS011;45901;47.600;9.890;2024-03-02T08:46:14;1.23;;;0.77;;
60030;SDS011;45901;47.600;9.890;2024-03-02T08:48:41;1.73;;;0.70;;
60030;SDS011;45901;47.600;9.890;2024-03-02T08:51:08;1.37;;;0.90;;
60030;SDS011;45901;47.600;9.890;2024-03-02T08:53:37;0.67;;;0.40;;
60030;SDS011;45901;47.600;9.890;2024-03-02T08:56:04;0.47;;;0.30;;
60030;SDS011;45901;47.600;9.890;2024-03-02T08:58:32;1.40;;;0.50;;
60030;SDS011;45901;47.600;9.890;2024-03-02T09:00:59;0.50;;;0.40;;
60030;SDS011;45901;47.600;9.890;2024-03-02T09:03:26;1.87;;;0.47;;
60030;SDS011;45901;47.600;9.890;2024-03-02T09:05:54;0.40;;;0.30;;
60030;SDS011;45901;47.600;9.890;2024-03-02T09:08:21;0.50;;;0.30;;
60030;SDS011;45901;47.600;9.890;2024-03-02T09:10:50;1.77;;;0.50;;
60030;SDS011;45901;47.600;9.890;2024-03-02T09:13:17;0.97;;;0.50;;
60030;SDS011;45901;47.600;9.890;2024-03-02T09:15:45;1.60;;;0.60;;
60030;SDS011;45901;47.600;9.890;2024-03-02T09:18:12;0.40;;;0.40;;
60030;SDS011;45901;47.600;9.890;2024-03-02T09:20:40;2.10;;;0.53;;
60030;SDS011;45901;47.600;9.890;2024-03-02T09:23:07;1.33;;;0.70;;
60030;SDS011;45901;47.600;9.890;2024-03-02T09:25:34;1.23;;;0.50;;
60030;SDS011;45901;47.600;9.890;2024-03-02T09:28:04;2.73;;;0.90;;
60030;SDS011;45901;47.600;9.890;2024-03-02T09:30:32;2.00;;;0.80;;
60030;SDS011;45901;47.600;9.890;2024-03-02T09:32:59;2.07;;;1.70;;
60030;SDS011;45901;47.600;9.890;2024-03-02T09:35:26;1.50;;;1.03;;
60030;SDS011;45901;47.600;9.890;2024-03-02T09:37:53;1.93;;;1.10;;
60030;SDS011;45901;47.600;9.890;2024-03-02T09:40:22;2.10;;;1.47;;
60030;SDS011;45901;47.600;9.890;2024-03-02T09:42:50;1.57;;;1.30;;
60030;SDS011;45901;47.600;9.890;2024-03-02T09:45:20;3.30;;;1.10;;
60030;SDS011;45901;47.600;9.890;2024-03-02T09:47:51;1.27;;;0.80;;
60030;SDS011;45901;47.600;9.890;2024-03-02T09:50:19;1.73;;;0.80;;
60030;SDS011;45901;47.600;9.890;2024-03-02T09:52:47;2.60;;;1.07;;
60030;SDS011;45901;47.600;9.890;2024-03-02T09:55:15;1.77;;;1.17;;
60030;SDS011;45901;47.600;9.890;2024-03-02T09:57:44;1.20;;;0.83;;
60030;SDS011;45901;47.600;9.890;2024-03-02T10:00:14;3.70;;;1.20;;
60030;SDS011;45901;47.600;9.890;2024-03-02T10:02:43;1.83;;;0.83;;
60030;SDS011;45901;47.600;9.890;2024-03-02T10:05:17;2.73;;;1.00;;
60030;SDS011;45901;47.600;9.890;2024-03-02T10:07:58;1.30;;;0.80;;
60030;SDS011;45901;47.600;9.890;2024-03-02T10:10:34;1.97;;;0.87;;
60030;SDS011;45901;47.600;9.890;2024-03-02T10:13:05;2.50;;;1.00;;
60030;SDS011;45901;47.600;9.890;2024-03-02T10:15:34;3.13;;;1.00;;
60030;SDS011;45901;47.600;9.890;2024-03-02T10:18:03;1.17;;;0.90;;
60030;SDS011;45901;47.600;9.890;2024-03-02T10:20:31;2.00;;;0.80;;
60030;SDS011;45901;47.600;9.890;2024-03-02T10:23:09;1.03;;;0.73;;
60030;SDS011;45901;47.600;9.890;2024-03-02T10:25:38;1.30;;;0.83;;
60030;SDS011;45901;47.600;9.890;2024-03-02T10:28:06;1.67;;;0.80;;
60030;SDS011;45901;47.600;9.890;2024-03-02T10:30:33;1.40;;;0.80;;
60030;SDS011;45901;47.600;9.890;2024-03-02T10:33:01;1.27;;;0.70;;
60030;SDS011;45901;47.600;9.890;2024-03-02T10:35:32;0.70;;;0.60;;
60030;SDS011;45901;47.600;9.890;2024-03-02T10:38:01;0.80;;;0.60;;
60030;SDS011;45901;47.600;9.890;2024-03-02T10:40:31;0.80;;;0.50;;
60030;SDS011;45901;47.600;9.890;2024-03-02T10:42:58;1.37;;;0.70;;
60030;SDS011;45901;47.600;9.890;2024-03-02T10:45:28;2.80;;;0.60;;
60030;SDS011;45901;47.600;9.890;2024-03-02T10:47:55;0.57;;;0.50;;
60030;SDS011;45901;47.600;9.890;2024-03-02T10:50:24;0.77;;;0.30;;
60030;SDS011;45901;47.600;9.890;2024-03-02T10:52:51;0.87;;;0.30;;
60030;SDS011;45901;47.600;9.890;2024-03-02T10:55:18;1.53;;;0.30;;
60030;SDS011;45901;47.600;9.890;2024-03-02T10:57:50;0.23;;;0.20;;
60030;SDS011;45901;47.600;9.890;2024-03-02T11:00:19;1.20;;;0.33;;
60030;SDS011;45901;47.600;9.890;2024-03-02T11:02:55;0.80;;;0.50;;
60030;SDS011;45901;47.600;9.890;2024-03-02T11:05:28;0.60;;;0.13;;
60030;SDS011;45901;47.600;9.890;2024-03-02T11:08:00;0.73;;;0.20;;
60030;SDS011;45901;47.600;9.890;2024-03-02T11:10:30;0.60;;;0.20;;
60030;SDS011;45901;47.600;9.890;2024-03-02T11:13:05;0.20;;;0.20;;
60030;SDS011;45901;47.600;9.890;2024-03-02T11:15:35;2.13;;;0.27;;
60030;SDS011;45901;47.600;9.890;2024-03-02T11:18:03;0.10;;;0.10;;
60030;SDS011;45901;47.600;9.890;2024-03-02T11:20:35;0.43;;;0.20;;
60030;SDS011;45901;47.600;9.890;2024-03-02T11:23:05;0.17;;;0.13;;
60030;SDS011;45901;47.600;9.890;2024-03-02T11:25:34;0.20;;;0.10;;
60030;SDS011;45901;47.600;9.890;2024-03-02T11:28:02;0.40;;;0.17;;
60030;SDS011;45901;47.600;9.890;2024-03-02T11:30:50;0.17;;;0.10;;
60030;SDS011;45901;47.600;9.890;2024-03-02T11:33:27;2.37;;;0.10;;
60030;SDS011;45901;47.600;9.890;2024-03-02T11:35:57;1.13;;;0.10;;
60030;SDS011;45901;47.600;9.890;2024-03-02T11:38:28;0.10;;;0.10;;
60030;SDS011;45901;47.600;9.890;2024-03-02T11:40:59;1.57;;;0.50;;
60030;SDS011;45901;47.600;9.890;2024-03-02T11:43:28;1.43;;;0.20;;
60030;SDS011;45901;47.600;9.890;2024-03-02T11:45:59;2.40;;;0.40;;
60030;SDS011;45901;47.600;9.890;2024-03-02T11:48:29;0.50;;;0.27;;
60030;SDS011;45901;47.600;9.890;2024-03-02T11:50:59;1.60;;;0.30;;
60030;SDS011;45901;47.600;9.890;2024-03-02T11:53:27;0.53;;;0.27;;
60030;SDS011;45901;47.600;9.890;2024-03-02T11:55:57;1.57;;;0.37;;
60030;SDS011;45901;47.600;9.890;2024-03-02T11:58:26;1.87;;;0.30;;
60030;SDS011;45901;47.600;9.890;2024-03-02T12:00:54;0.80;;;0.30;;
60030;SDS011;45901;47.600;9.890;2024-03-02T12:03:23;0.30;;;0.17;;
60030;SDS011;45901;47.600;9.890;2024-03-02T12:05:53;0.67;;;0.20;;
60030;SDS011;45901;47.600;9.890;2024-03-02T12:08:22;0.43;;;0.33;;
60030;SDS011;45901;47.600;9.890;2024-03-02T12:10:55;0.67;;;0.40;;
60030;SDS011;45901;47.600;9.890;2024-03-02T12:13:24;2.30;;;1.40;;
60030;SDS011;45901;47.600;9.890;2024-03-02T12:15:53;1.77;;;1.03;;
60030;SDS011;45901;47.600;9.890;2024-03-02T12:18:21;2.27;;;0.70;;
60030;SDS011;45901;47.600;9.890;2024-03-02T12:20:48;0.93;;;0.60;;
60030;SDS011;45901;47.600;9.890;2024-03-02T12:23:17;2.23;;;0.90;;
60030;SDS011;45901;47.600;9.890;2024-03-02T12:25:47;2.63;;;0.90;;
60030;SDS011;45901;47.600;9.890;2024-03-02T12:28:14;3.70;;;1.07;;
60030;SDS011;45901;47.600;9.890;2024-03-02T12:30:42;3.40;;;0.80;;
60030;SDS011;45901;47.600;9.890;2024-03-02T12:33:10;2.23;;;1.00;;
60030;SDS011;45901;47.600;9.890;2024-03-02T12:35:38;1.97;;;0.90;;
60030;SDS011;45901;47.600;9.890;2024-03-02T12:38:06;1.43;;;0.77;;
60030;SDS011;45901;47.600;9.890;2024-03-02T12:40:37;1.87;;;0.63;;
60030;SDS011;45901;47.600;9.890;2024-03-02T12:43:06;0.70;;;0.43;;
60030;SDS011;45901;47.600;9.890;2024-03-02T12:45:39;1.27;;;0.50;;
60030;SDS011;45901;47.600;9.890;2024-03-02T12:48:07;0.30;;;0.30;;
60030;SDS011;45901;47.600;9.890;2024-03-02T12:50:34;1.03;;;0.30;;
60030;SDS011;45901;47.600;9.890;2024-03-02T12:53:01;0.90;;;0.20;;
60030;SDS011;45901;47.600;9.890;2024-03-02T12:55:29;2.13;;;0.37;;
60030;SDS011;45901;47.600;9.890;2024-03-02T12:57:57;1.50;;;0.60;;
60030;SDS011;45901;47.600;9.890;2024-03-02T13:00:25;0.87;;;0.40;;
60030;SDS011;45901;47.600;9.890;2024-03-02T13:02:53;0.57;;;0.30;;
60030;SDS011;45901;47.600;9.890;2024-03-02T13:05:29;1.70;;;0.70;;
60030;SDS011;45901;47.600;9.890;2024-03-02T13:07:58;2.30;;;0.70;;
60030;SDS011;45901;47.600;9.890;2024-03-02T13:10:25;0.90;;;0.40;;
60030;SDS011;45901;47.600;9.890;2024-03-02T13:12:53;0.73;;;0.40;;
60030;SDS011;45901;47.600;9.890;2024-03-02T13:15:22;1.43;;;0.33;;
60030;SDS011;45901;47.600;9.890;2024-03-02T13:17:50;0.47;;;0.30;;
60030;SDS011;45901;47.600;9.890;2024-03-02T13:20:17;0.20;;;0.20;;
60030;SDS011;45901;47.600;9.890;2024-03-02T13:22:45;1.80;;;0.60;;
60030;SDS011;45901;47.600;9.890;2024-03-02T13:25:12;0.33;;;0.23;;
60030;SDS011;45901;47.600;9.890;2024-03-02T13:27:40;1.13;;;0.20;;
60030;SDS011;45901;47.600;9.890;2024-03-02T13:30:07;0.30;;;0.20;;
60030;SDS011;45901;47.600;9.890;2024-03-02T13:32:35;0.83;;;0.30;;
60030;SDS011;45901;47.600;9.890;2024-03-02T13:35:04;2.20;;;0.50;;
60030;SDS011;45901;47.600;9.890;2024-03-02T13:37:31;0.97;;;0.37;;
60030;SDS011;45901;47.600;9.890;2024-03-02T13:39:59;0.63;;;0.40;;
60030;SDS011;45901;47.600;9.890;2024-03-02T13:42:26;2.93;;;0.40;;
60030;SDS011;45901;47.600;9.890;2024-03-02T13:44:53;1.17;;;0.60;;
60030;SDS011;45901;47.600;9.890;2024-03-02T13:47:21;1.40;;;0.60;;
60030;SDS011;45901;47.600;9.890;2024-03-02T13:49:48;0.90;;;0.40;;
60030;SDS011;45901;47.600;9.890;2024-03-02T13:52:17;0.37;;;0.30;;
60030;SDS011;45901;47.600;9.890;2024-03-02T13:54:46;2.53;;;0.40;;
60030;SDS011;45901;47.600;9.890;2024-03-02T13:57:14;1.00;;;0.50;;
60030;SDS011;45901;47.600;9.890;2024-03-02T13:59:45;1.70;;;0.40;;
60030;SDS011;45901;47.600;9.890;2024-03-02T14:02:13;1.43;;;0.40;;
60030;SDS011;45901;47.600;9.890;2024-03-02T14:04:41;1.37;;;0.50;;
60030;SDS011;45901;47.600;9.890;2024-03-02T14:07:08;0.90;;;0.50;;
60030;SDS011;45901;47.600;9.890;2024-03-02T14:09:38;1.07;;;0.43;;
60030;SDS011;45901;47.600;9.890;2024-03-02T14:12:06;1.70;;;0.60;;
60030;SDS011;45901;47.600;9.890;2024-03-02T14:14:34;1.00;;;0.50;;
60030;SDS011;45901;47.600;9.890;2024-03-02T14:17:01;0.70;;;0.40;;
60030;SDS011;45901;47.600;9.890;2024-03-02T14:19:31;0.90;;;0.40;;
60030;SDS011;45901;47.600;9.890;2024-03-02T14:21:58;0.67;;;0.47;;
60030;SDS011;45901;47.600;9.890;2024-03-02T14:24:25;1.37;;;0.40;;
60030;SDS011;45901;47.600;9.890;2024-03-02T14:26:55;3.07;;;0.50;;
60030;SDS011;45901;47.600;9.890;2024-03-02T14:29:27;2.37;;;0.50;;
60030;SDS011;45901;47.600;9.890;2024-03-02T14:31:54;2.37;;;0.47;;
60030;SDS011;45901;47.600;9.890;2024-03-02T14:34:22;1.77;;;0.30;;
60030;SDS011;45901;47.600;9.890;2024-03-02T14:36:49;2.67;;;0.50;;
60030;SDS011;45901;47.600;9.890;2024-03-02T14:39:16;2.10;;;0.43;;
60030;SDS011;45901;47.600;9.890;2024-03-02T14:41:44;1.23;;;0.60;;
60030;SDS011;45901;47.600;9.890;2024-03-02T14:44:13;0.93;;;0.40;;
60030;SDS011;45901;47.600;9.890;2024-03-02T14:46:42;0.83;;;0.53;;
60030;SDS011;45901;47.600;9.890;2024-03-02T14:49:12;2.10;;;0.60;;
60030;SDS011;45901;47.600;9.890;2024-03-02T14:51:40;1.53;;;0.70;;
60030;SDS011;45901;47.600;9.890;2024-03-02T14:54:07;3.30;;;0.67;;
60030;SDS011;45901;47.600;9.890;2024-03-02T14:56:34;1.23;;;0.90;;